createdAt,value
2019-04-14T00:02:40.452Z,34.47
2019-04-14T00:05:14.631Z,34.70
2019-04-14T00:07:44.844Z,29.93
2019-04-14T00:10:14.648Z,35.17
2019-04-14T00:12:44.775Z,30.40
2019-04-14T00:15:25.957Z,31.93
2019-04-14T00:17:45.686Z,33.97
2019-04-14T00:20:14.700Z,29.60
2019-04-14T00:22:44.614Z,32.53
2019-04-14T00:25:15.089Z,34.00
2019-04-14T00:27:45.265Z,33.60
2019-04-14T00:30:16.568Z,32.03
2019-04-14T00:32:59.608Z,34.77
2019-04-14T00:35:36.318Z,33.23
2019-04-14T00:38:24.320Z,38.90
2019-04-14T00:41:12.319Z,31.37
2019-04-14T00:44:10.008Z,37.93
2019-04-14T00:46:58.368Z,36.77
2019-04-14T00:49:28.903Z,34.13
2019-04-14T00:51:59.223Z,35.83
2019-04-14T00:54:28.394Z,35.50
2019-04-14T00:56:58.481Z,36.47
2019-04-14T00:59:27.608Z,37.37
2019-04-14T01:01:56.956Z,38.23
2019-04-14T01:04:27.244Z,36.13
2019-04-14T01:06:57.581Z,36.87
2019-04-14T01:09:26.795Z,36.13
2019-04-14T01:11:55.835Z,32.87
2019-04-14T01:14:25.549Z,43.47
2019-04-14T01:16:55.795Z,37.97
2019-04-14T01:19:24.935Z,34.07
2019-04-14T01:21:54.579Z,34.80
2019-04-14T01:24:24.904Z,34.13
2019-04-14T01:26:55.033Z,39.10
2019-04-14T01:29:25.430Z,36.63
2019-04-14T01:31:55.702Z,36.87
2019-04-14T01:34:25.899Z,35.47
2019-04-14T01:36:56.114Z,34.77
2019-04-14T01:39:26.436Z,37.13
2019-04-14T01:41:56.442Z,34.37
2019-04-14T01:44:26.424Z,35.47
2019-04-14T01:46:56.505Z,34.77
2019-04-14T01:49:26.811Z,36.00
2019-04-14T01:52:14.570Z,37.77
2019-04-14T01:55:02.876Z,32.80
2019-04-14T01:57:48.284Z,38.40
2019-04-14T02:00:40.270Z,34.33
2019-04-14T02:03:10.574Z,39.13
2019-04-14T02:05:40.688Z,37.80
2019-04-14T02:08:11.107Z,36.63
2019-04-14T02:10:41.248Z,42.53
2019-04-14T02:13:11.445Z,38.50
2019-04-14T02:15:41.819Z,36.90
2019-04-14T02:18:12.123Z,36.33
2019-04-14T02:20:42.484Z,35.47
2019-04-14T02:23:12.557Z,36.20
2019-04-14T02:25:42.884Z,37.10
2019-04-14T02:28:13.323Z,35.53
2019-04-14T02:30:55.163Z,38.10
2019-04-14T02:33:46.903Z,40.33
2019-04-14T02:36:27.529Z,34.37
2019-04-14T02:38:49.071Z,32.17
2019-04-14T02:46:12.202Z,34.90
2019-04-14T02:48:55.376Z,38.83
2019-04-14T02:51:21.269Z,35.83
2019-04-14T02:53:54.122Z,34.10
2019-04-14T02:56:29.224Z,35.50
2019-04-14T02:58:56.999Z,35.07
2019-04-14T03:06:18.442Z,35.60
2019-04-14T03:09:04.686Z,33.77
2019-04-14T03:11:25.866Z,35.10
2019-04-14T03:13:51.393Z,33.30
2019-04-14T03:16:32.994Z,31.73
2019-04-14T03:18:59.789Z,34.17
2019-04-14T03:21:55.107Z,37.17
2019-04-14T03:29:40.775Z,35.90
2019-04-14T03:32:23.181Z,34.73
2019-04-14T03:34:42.091Z,34.33
2019-04-14T03:39:40.593Z,34.10
2019-04-14T03:42:12.498Z,39.07
2019-04-14T03:44:44.899Z,35.73
2019-04-14T03:47:13.532Z,34.67
2019-04-14T03:50:17.503Z,36.90
2019-04-14T03:54:40.231Z,34.57
2019-04-14T03:56:55.700Z,35.80
2019-04-14T03:59:25.990Z,38.50
2019-04-14T04:01:56.455Z,34.43
2019-04-14T04:04:25.673Z,36.97
2019-04-14T04:06:55.347Z,38.60
2019-04-14T04:09:30.733Z,34.57
2019-04-14T04:12:00.573Z,34.20
2019-04-14T04:14:29.716Z,37.17
2019-04-14T04:17:18.912Z,36.43
2019-04-14T04:20:13.150Z,38.03
2019-04-14T04:23:00.841Z,34.80
2019-04-14T04:25:35.358Z,38.77
2019-04-14T04:28:38.707Z,36.27
2019-04-14T04:31:22.050Z,36.87
2019-04-14T04:34:04.011Z,34.83
2019-04-14T04:36:40.455Z,33.50
2019-04-14T04:39:17.002Z,36.30
2019-04-14T04:41:47.168Z,36.13
2019-04-14T04:44:16.326Z,34.67
2019-04-14T04:46:45.982Z,36.33
2019-04-14T04:49:20.474Z,36.33
2019-04-14T04:51:46.536Z,39.23
2019-04-14T04:54:16.750Z,39.20
2019-04-14T04:56:45.827Z,37.43
2019-04-14T04:59:14.963Z,40.63
2019-04-14T05:01:45.077Z,38.40
2019-04-14T05:04:15.420Z,39.97
2019-04-14T05:07:01.793Z,41.20
2019-04-14T05:09:49.075Z,41.07
2019-04-14T05:12:26.743Z,39.97
2019-04-14T05:15:05.361Z,41.30
2019-04-14T05:17:35.045Z,41.73
2019-04-14T05:20:05.221Z,45.87
2019-04-14T05:22:35.419Z,39.83
2019-04-14T05:25:05.669Z,42.87
2019-04-14T05:27:35.127Z,42.37
2019-04-14T05:30:04.720Z,46.20
2019-04-14T05:32:34.713Z,40.13
2019-04-14T05:35:05.128Z,43.17
2019-04-14T05:37:35.467Z,43.97
2019-04-14T05:40:05.878Z,40.10
2019-04-14T05:42:36.164Z,41.43
2019-04-14T05:45:06.607Z,41.37
2019-04-14T05:47:35.587Z,41.20
2019-04-14T05:50:05.176Z,42.20
2019-04-14T05:52:34.044Z,40.07
2019-04-14T05:55:03.037Z,41.50
2019-04-14T05:57:32.687Z,44.03
2019-04-14T06:00:01.898Z,41.53
2019-04-14T06:02:32.067Z,41.40
2019-04-14T06:05:01.600Z,41.67
2019-04-14T06:07:30.868Z,43.13
2019-04-14T06:10:05.924Z,37.57
2019-04-14T06:12:34.852Z,40.63
2019-04-14T06:15:04.215Z,39.90
2019-04-14T06:17:33.030Z,41.20
2019-04-14T06:20:01.872Z,39.33
2019-04-14T06:22:30.719Z,40.93
2019-04-14T06:24:59.635Z,40.83
2019-04-14T06:27:28.856Z,41.10
2019-04-14T06:30:04.135Z,40.80
2019-04-14T06:32:42.014Z,40.30
2019-04-14T06:35:18.157Z,38.77
2019-04-14T06:37:56.759Z,39.23
2019-04-14T06:40:26.799Z,46.30
2019-04-14T06:42:55.693Z,39.97
2019-04-14T06:45:24.689Z,37.70
2019-04-14T06:47:53.530Z,39.53
2019-04-14T06:50:22.665Z,35.57
2019-04-14T06:52:52.364Z,39.07
2019-04-14T06:55:21.323Z,39.63
2019-04-14T06:57:53.330Z,35.17
2019-04-14T07:00:22.670Z,34.57
2019-04-14T07:02:51.616Z,32.63
2019-04-14T07:05:20.662Z,32.77
2019-04-14T07:07:56.945Z,28.10
2019-04-14T07:10:20.207Z,28.73
2019-04-14T07:12:49.218Z,30.53
2019-04-14T07:15:18.180Z,27.40
2019-04-14T07:17:47.139Z,26.80
2019-04-14T07:20:16.095Z,27.13
2019-04-14T07:22:45.031Z,29.77
2019-04-14T07:25:14.312Z,28.10
2019-04-14T07:27:43.972Z,27.63
2019-04-14T07:30:29.212Z,27.30
2019-04-14T07:33:35.758Z,26.53
2019-04-14T07:36:30.470Z,65.67
2019-04-14T07:39:27.486Z,34.03
2019-04-14T07:42:08.981Z,28.20
2019-04-14T07:44:56.922Z,24.57
2019-04-14T07:47:34.039Z,24.63
2019-04-14T07:50:22.132Z,27.87
2019-04-14T07:53:00.813Z,25.97
2019-04-14T07:55:39.914Z,25.57
2019-04-14T07:58:46.580Z,24.07
2019-04-14T08:01:19.563Z,25.73
2019-04-14T08:04:06.202Z,21.77
2019-04-14T08:06:38.214Z,22.13
2019-04-14T08:09:07.052Z,29.37
2019-04-14T08:11:36.037Z,23.27
2019-04-14T08:14:05.490Z,24.53
2019-04-14T08:16:34.489Z,22.73
2019-04-14T08:19:03.711Z,22.97
2019-04-14T08:21:32.805Z,21.27
2019-04-14T08:24:01.721Z,21.90
2019-04-14T08:26:31.130Z,24.57
2019-04-14T08:29:00.098Z,23.07
2019-04-14T08:31:29.036Z,21.97
2019-04-14T08:33:58.173Z,21.27
2019-04-14T08:36:27.080Z,20.33
2019-04-14T08:38:55.941Z,21.87
2019-04-14T08:41:25.279Z,58.33
2019-04-14T08:44:01.262Z,23.00
2019-04-14T08:46:48.425Z,23.03
2019-04-14T08:49:24.466Z,22.17
2019-04-14T08:52:13.547Z,24.63
2019-04-14T08:55:00.879Z,20.57
2019-04-14T08:57:38.259Z,22.27
2019-04-14T09:00:12.163Z,21.10
2019-04-14T09:02:57.248Z,20.03
2019-04-14T09:05:48.249Z,19.63
2019-04-14T09:08:30.372Z,35.77
2019-04-14T09:11:01.384Z,20.10
2019-04-14T09:13:30.610Z,20.23
2019-04-14T09:15:59.693Z,20.33
2019-04-14T09:18:29.034Z,19.93
2019-04-14T09:20:58.084Z,19.90
2019-04-14T09:23:27.126Z,21.23
2019-04-14T09:25:56.213Z,20.47
2019-04-14T09:28:25.545Z,20.73
2019-04-14T09:30:54.731Z,19.53
2019-04-14T09:33:23.604Z,22.00
2019-04-14T09:35:52.608Z,21.40
2019-04-14T09:38:21.943Z,22.73
2019-04-14T09:40:51.145Z,21.63
2019-04-14T09:43:20.110Z,21.47
2019-04-14T09:45:49.119Z,19.07
2019-04-14T09:48:18.547Z,21.07
2019-04-14T09:50:48.006Z,18.73
2019-04-14T09:53:17.084Z,21.40
2019-04-14T09:55:46.168Z,19.83
2019-04-14T09:58:15.347Z,19.37
2019-04-14T10:00:44.336Z,19.33
2019-04-14T10:03:13.642Z,20.93
2019-04-14T10:05:42.499Z,19.00
2019-04-14T10:08:11.545Z,18.70
2019-04-14T10:10:40.625Z,19.53
2019-04-14T10:13:10.129Z,19.87
2019-04-14T10:15:39.127Z,18.33
2019-04-14T10:18:08.530Z,18.07
2019-04-14T10:20:37.408Z,17.93
2019-04-14T10:23:06.650Z,17.63
2019-04-14T10:25:35.614Z,17.87
2019-04-14T10:28:04.654Z,19.57
2019-04-14T10:30:33.578Z,37.33
2019-04-14T10:33:02.606Z,17.53
2019-04-14T10:35:34.703Z,16.47
2019-04-14T10:38:04.026Z,18.43
2019-04-14T10:40:33.327Z,16.97
2019-04-14T10:43:02.593Z,17.83
2019-04-14T10:45:32.186Z,18.10
2019-04-14T10:48:01.080Z,17.37
2019-04-14T10:50:31.262Z,17.87
2019-04-14T10:53:00.364Z,17.23
2019-04-14T10:55:29.377Z,19.13
2019-04-14T10:57:58.745Z,16.77
2019-04-14T11:00:27.838Z,17.37
2019-04-14T11:02:56.996Z,17.13
2019-04-14T11:05:28.004Z,15.90
2019-04-14T11:07:57.036Z,15.77
2019-04-14T11:10:26.187Z,15.43
2019-04-14T11:12:55.175Z,17.83
2019-04-14T11:15:24.127Z,17.60
2019-04-14T11:17:52.961Z,16.20
2019-04-14T11:20:21.938Z,18.50
2019-04-14T11:23:02.486Z,16.47
2019-04-14T11:25:21.412Z,17.17
2019-04-14T11:27:50.316Z,15.23
2019-04-14T11:30:21.250Z,15.73
2019-04-14T11:33:02.439Z,17.50
2019-04-14T11:35:35.724Z,16.13
2019-04-14T11:38:22.611Z,15.40
2019-04-14T11:40:53.824Z,13.40
2019-04-14T11:43:22.806Z,64.73
2019-04-14T11:45:52.259Z,16.37
2019-04-14T11:48:21.283Z,14.40
2019-04-14T11:50:50.372Z,14.50
2019-04-14T11:53:19.647Z,13.57
2019-04-14T11:55:48.727Z,15.13
2019-04-14T11:58:17.709Z,14.00
2019-04-14T12:01:05.700Z,13.83
2019-04-14T12:04:08.951Z,13.73
2019-04-14T12:07:02.982Z,13.97
2019-04-14T12:09:49.909Z,15.10
2019-04-14T12:12:18.850Z,24.33
2019-04-14T12:14:47.770Z,40.33
2019-04-14T12:17:16.681Z,14.87
2019-04-14T12:19:45.718Z,13.20
2019-04-14T12:22:14.635Z,16.43
2019-04-14T12:24:43.572Z,14.07
2019-04-14T12:27:12.611Z,13.47
2019-04-14T12:29:41.890Z,14.77
2019-04-14T12:32:10.928Z,14.60
2019-04-14T12:34:39.798Z,15.70
2019-04-14T12:37:08.733Z,13.00
2019-04-14T12:39:37.970Z,11.83
2019-04-14T12:42:26.268Z,13.47
2019-04-14T12:45:17.224Z,12.73
2019-04-14T12:47:58.670Z,45.97
2019-04-14T12:50:36.764Z,12.07
2019-04-14T12:53:06.235Z,13.00
2019-04-14T12:55:35.744Z,11.87
2019-04-14T12:58:06.175Z,14.03
2019-04-14T13:00:47.680Z,11.43
2019-04-14T13:03:16.598Z,13.90
2019-04-14T13:05:45.784Z,13.33
2019-04-14T13:08:14.830Z,13.13
2019-04-14T13:10:43.929Z,12.77
2019-04-14T13:13:12.853Z,11.83
2019-04-14T13:15:41.784Z,14.10
2019-04-14T13:18:10.983Z,11.83
2019-04-14T13:20:40.030Z,15.93
2019-04-14T13:23:09.015Z,15.20
2019-04-14T13:25:37.865Z,15.10
2019-04-14T13:28:07.145Z,14.97
2019-04-14T13:30:39.310Z,12.50
2019-04-14T13:33:08.323Z,12.57
2019-04-14T13:35:37.353Z,12.90
2019-04-14T13:38:06.674Z,16.97
2019-04-14T13:40:36.092Z,13.17
2019-04-14T13:43:05.204Z,13.70
2019-04-14T13:45:34.219Z,13.43
2019-04-14T13:48:03.172Z,17.10
2019-04-14T13:50:32.197Z,13.73
2019-04-14T13:53:01.142Z,13.40
2019-04-14T13:55:30.041Z,14.93
2019-04-14T13:57:59.001Z,15.53
2019-04-14T14:00:28.053Z,14.30
2019-04-14T14:02:58.401Z,16.93
2019-04-14T14:05:27.298Z,15.87
2019-04-14T14:07:56.210Z,16.33
2019-04-14T14:10:25.270Z,14.57
2019-04-14T14:13:12.047Z,15.17
2019-04-14T14:15:59.208Z,16.63
2019-04-14T14:18:41.372Z,17.40
2019-04-14T14:21:41.585Z,16.27
2019-04-14T14:24:25.905Z,14.93
2019-04-14T14:26:54.974Z,15.00
2019-04-14T14:29:24.211Z,12.67
2019-04-14T14:31:53.692Z,16.53
2019-04-14T14:34:22.653Z,15.67
2019-04-14T14:36:51.763Z,12.63
2019-04-14T14:39:21.431Z,14.17
2019-04-14T14:41:50.507Z,13.60
2019-04-14T14:44:20.915Z,13.40
2019-04-14T14:47:00.840Z,14.27
2019-04-14T14:49:57.061Z,13.50
2019-04-14T14:52:26.008Z,13.57
2019-04-14T14:54:54.999Z,15.47
2019-04-14T14:57:24.019Z,16.30
2019-04-14T14:59:53.274Z,14.17
2019-04-14T15:02:23.445Z,15.10
2019-04-14T15:04:52.725Z,12.80
2019-04-14T15:07:21.800Z,15.93
2019-04-14T15:09:50.815Z,14.07
2019-04-14T15:12:19.691Z,14.73
2019-04-14T15:14:49.601Z,16.40
2019-04-14T15:17:19.223Z,12.27
2019-04-14T15:19:48.451Z,14.73
2019-04-14T15:22:17.547Z,15.10
2019-04-14T15:24:46.542Z,14.40
2019-04-14T15:27:15.526Z,15.97
2019-04-14T15:29:44.439Z,14.93
2019-04-14T15:32:13.336Z,14.00
2019-04-14T15:34:42.362Z,16.47
2019-04-14T15:37:11.278Z,14.33
2019-04-14T15:39:40.210Z,14.90
2019-04-14T15:42:09.249Z,14.80
2019-04-14T15:44:38.236Z,14.03
2019-04-14T15:47:07.346Z,15.63
2019-04-14T15:49:36.317Z,15.57
2019-04-14T15:52:05.913Z,14.83
2019-04-14T15:54:35.017Z,13.60
2019-04-14T15:57:21.734Z,17.10
2019-04-14T16:00:09.630Z,12.77
2019-04-14T16:02:57.856Z,19.93
2019-04-14T16:05:41.296Z,13.70
2019-04-14T16:08:21.066Z,14.73
2019-04-14T16:11:18.297Z,14.70
2019-04-14T16:14:05.239Z,16.83
2019-04-14T16:16:52.434Z,16.43
2019-04-14T16:19:28.727Z,15.10
2019-04-14T16:21:57.672Z,15.77
2019-04-14T16:24:26.613Z,15.73
2019-04-14T16:27:02.900Z,18.77
2019-04-14T16:29:50.706Z,16.87
2019-04-14T16:32:37.136Z,36.90
2019-04-14T16:35:13.555Z,19.20
2019-04-14T16:37:42.787Z,18.10
2019-04-14T16:40:11.940Z,16.40
2019-04-14T16:42:41.114Z,15.87
2019-04-14T16:45:13.612Z,15.20
2019-04-14T16:47:42.625Z,15.87
2019-04-14T16:50:11.790Z,14.20
2019-04-14T16:52:55.019Z,15.90
2019-04-14T16:55:41.989Z,17.27
2019-04-14T16:58:20.391Z,14.47
2019-04-14T17:00:53.948Z,15.43
2019-04-14T17:03:23.143Z,18.33
2019-04-14T17:05:52.579Z,16.50
2019-04-14T17:08:21.737Z,15.13
2019-04-14T17:10:50.959Z,14.93
2019-04-14T17:13:20.054Z,13.10
2019-04-14T17:16:11.667Z,14.13
2019-04-14T17:18:48.362Z,15.67
2019-04-14T17:21:35.241Z,17.57
2019-04-14T17:24:22.153Z,18.47
2019-04-14T17:27:22.711Z,15.80
2019-04-14T17:29:59.190Z,12.90
2019-04-14T17:32:34.528Z,16.60
2019-04-14T17:35:29.771Z,16.57
2019-04-14T17:38:12.838Z,15.40
2019-04-14T17:41:00.952Z,15.00
2019-04-14T17:43:36.392Z,15.37
2019-04-14T17:46:23.136Z,15.23
2019-04-14T17:48:58.943Z,18.73
2019-04-14T17:51:34.699Z,16.50
2019-04-14T17:54:29.178Z,14.40
2019-04-14T17:57:27.859Z,17.10
2019-04-14T18:00:22.032Z,14.67
2019-04-14T18:03:00.378Z,15.37
2019-04-14T18:05:37.198Z,14.03
2019-04-14T18:08:12.731Z,13.90
2019-04-14T18:11:13.063Z,19.97
2019-04-14T18:13:59.444Z,13.10
2019-04-14T18:16:40.752Z,12.73
2019-04-14T18:19:18.712Z,14.97
2019-04-14T18:21:47.705Z,15.07
2019-04-14T18:24:16.845Z,17.17
2019-04-14T18:26:46.121Z,16.20
2019-04-14T18:29:43.514Z,16.40
2019-04-14T18:32:41.186Z,15.70
2019-04-14T18:35:18.107Z,17.40
2019-04-14T18:37:57.584Z,14.10
2019-04-14T18:40:45.989Z,15.10
2019-04-14T18:43:33.141Z,16.33
2019-04-14T18:46:08.097Z,19.77
2019-04-14T18:48:59.552Z,22.50
2019-04-14T18:51:39.671Z,19.20
2019-04-14T18:54:33.763Z,14.70
2019-04-14T18:57:10.170Z,14.33
2019-04-14T18:59:57.369Z,15.20
2019-04-14T19:02:26.342Z,16.43
2019-04-14T19:04:55.242Z,15.17
2019-04-14T19:07:24.245Z,14.37
2019-04-14T19:09:53.220Z,14.27
2019-04-14T19:12:50.100Z,16.97
2019-04-14T19:15:26.226Z,15.27
2019-04-14T19:18:14.168Z,16.40
2019-04-14T19:20:46.383Z,73.93
2019-04-14T19:23:15.320Z,17.33
2019-04-14T19:25:44.199Z,17.73
2019-04-14T19:28:13.038Z,15.90
2019-04-14T19:30:42.047Z,16.37
2019-04-14T19:33:10.957Z,16.03
2019-04-14T19:35:40.011Z,16.47
2019-04-14T19:38:08.867Z,15.77
2019-04-14T19:40:37.749Z,16.87
2019-04-14T19:43:06.649Z,15.43
2019-04-14T19:45:36.094Z,17.10
2019-04-14T19:48:05.089Z,16.70
2019-04-14T19:50:34.117Z,15.73
2019-04-14T19:53:03.052Z,19.10
2019-04-14T19:55:32.278Z,17.23
2019-04-14T19:58:01.849Z,14.40
2019-04-14T20:00:30.920Z,15.80
2019-04-14T20:02:59.936Z,14.93
2019-04-14T20:05:28.890Z,12.27
2019-04-14T20:07:58.166Z,17.20
2019-04-14T20:10:27.203Z,14.33
2019-04-14T20:12:56.145Z,14.43
2019-04-14T20:15:28.174Z,13.30
2019-04-14T20:18:10.441Z,13.80
2019-04-14T20:21:04.686Z,13.87
2019-04-14T20:23:38.547Z,13.30
2019-04-14T20:26:41.904Z,12.47
2019-04-14T20:29:23.603Z,13.83
2019-04-14T20:31:58.740Z,15.27
2019-04-14T20:34:27.726Z,13.40
2019-04-14T20:36:56.680Z,15.27
2019-04-14T20:39:26.413Z,14.47
2019-04-14T20:41:55.405Z,12.77
2019-04-14T20:44:24.298Z,12.67
2019-04-14T20:46:53.340Z,14.07
2019-04-14T20:49:22.270Z,15.93
2019-04-14T20:51:51.641Z,13.10
2019-04-14T20:54:20.570Z,10.80
2019-04-14T20:56:49.831Z,13.17
2019-04-14T20:59:18.995Z,14.87
2019-04-14T21:01:55.305Z,12.43
2019-04-14T21:04:38.167Z,15.33
2019-04-14T21:07:41.599Z,12.17
2019-04-14T21:10:37.417Z,15.30
2019-04-14T21:13:12.494Z,11.70
2019-04-14T21:15:47.537Z,12.73
2019-04-14T21:18:35.521Z,13.13
2019-04-14T21:21:15.551Z,15.20
2019-04-14T21:24:01.960Z,14.93
2019-04-14T21:26:42.101Z,12.60
2019-04-14T21:29:17.867Z,14.20
2019-04-14T21:31:53.194Z,13.97
2019-04-14T21:34:31.819Z,12.17
2019-04-14T21:37:19.902Z,14.63
2019-04-14T21:39:53.752Z,13.03
2019-04-14T21:42:31.438Z,12.70
2019-04-14T21:45:00.492Z,14.27
2019-04-14T21:47:29.441Z,12.90
2019-04-14T21:49:58.763Z,13.90
2019-04-14T21:52:42.450Z,13.37
2019-04-14T21:55:13.722Z,11.33
2019-04-14T21:58:20.093Z,13.17
2019-04-14T22:01:37.599Z,9.77
2019-04-14T22:04:24.456Z,13.17
2019-04-14T22:06:54.367Z,11.20
2019-04-14T22:09:29.506Z,9.23
2019-04-14T22:11:59.823Z,8.90
2019-04-14T22:14:28.711Z,9.17
2019-04-14T22:16:57.590Z,10.97
2019-04-14T22:19:26.619Z,11.27
2019-04-14T22:21:55.554Z,10.30
2019-04-14T22:24:24.536Z,9.47
2019-04-14T22:26:53.585Z,12.30
2019-04-14T22:29:22.872Z,11.23
2019-04-14T22:31:52.719Z,10.63
2019-04-14T22:34:22.084Z,10.07
2019-04-14T22:36:51.033Z,11.57
2019-04-14T22:39:20.035Z,9.80
2019-04-14T22:41:49.045Z,11.20
2019-04-14T22:44:18.386Z,10.40
2019-04-14T22:46:47.432Z,10.33
2019-04-14T22:49:16.399Z,10.70
2019-04-14T22:51:45.417Z,9.43
2019-04-14T22:54:14.666Z,11.50
2019-04-14T22:56:43.617Z,9.73
2019-04-14T22:59:16.330Z,10.23
2019-04-14T23:01:48.400Z,9.90
2019-04-14T23:04:35.132Z,8.30
2019-04-14T23:07:13.840Z,7.83
2019-04-14T23:09:50.174Z,7.00
2019-04-14T23:12:33.287Z,7.80
2019-04-14T23:15:25.229Z,7.83
2019-04-14T23:18:08.538Z,7.50
2019-04-14T23:20:46.773Z,7.33
2019-04-14T23:23:31.135Z,7.63
2019-04-14T23:26:00.163Z,6.73
2019-04-14T23:28:29.127Z,7.53
2019-04-14T23:31:01.464Z,6.93
2019-04-14T23:33:29.477Z,7.67
2019-04-14T23:35:58.439Z,8.13
2019-04-14T23:38:27.340Z,7.47
2019-04-14T23:40:56.435Z,6.93
2019-04-14T23:43:25.474Z,8.13
2019-04-14T23:45:54.526Z,8.37
2019-04-14T23:48:23.523Z,6.70
2019-04-14T23:50:52.457Z,8.63
2019-04-14T23:53:21.471Z,5.50
2019-04-14T23:55:50.902Z,6.60
2019-04-14T23:58:19.924Z,5.90
